createdAt,value
2018-08-17T00:01:23.220Z,72.10
2018-08-17T00:03:53.402Z,72.10
2018-08-17T00:06:23.263Z,72.00
2018-08-17T00:08:52.951Z,71.90
2018-08-17T00:11:24.073Z,71.70
2018-08-17T00:13:53.596Z,71.60
2018-08-17T00:16:23.709Z,71.80
2018-08-17T00:18:53.857Z,71.80
2018-08-17T00:21:23.607Z,72.50
2018-08-17T00:23:53.254Z,71.80
2018-08-17T00:26:23.178Z,71.90
2018-08-17T00:28:52.904Z,71.90
2018-08-17T00:31:22.979Z,71.90
2018-08-17T00:33:53.680Z,71.50
2018-08-17T00:36:23.581Z,71.40
2018-08-17T00:38:53.293Z,71.60
2018-08-17T00:41:23.130Z,71.80
2018-08-17T00:43:52.801Z,71.90
2018-08-17T00:46:23.305Z,72.00
2018-08-17T00:48:53.328Z,72.10
2018-08-17T00:51:23.080Z,72.10
2018-08-17T00:53:53.187Z,72.10
2018-08-17T00:56:23.164Z,72.00
2018-08-17T00:58:52.766Z,72.10
2018-08-17T01:01:22.425Z,72.10
2018-08-17T01:03:52.404Z,71.90
2018-08-17T01:06:22.185Z,71.80
2018-08-17T01:08:51.961Z,71.80
2018-08-17T01:11:22.334Z,71.70
2018-08-17T01:13:52.100Z,71.80
2018-08-17T01:16:21.626Z,71.70
2018-08-17T01:18:51.353Z,71.60
2018-08-17T01:21:21.016Z,71.60
2018-08-17T01:23:50.512Z,71.40
2018-08-17T01:26:20.409Z,71.40
2018-08-17T01:28:49.789Z,71.40
2018-08-17T01:31:19.131Z,71.60
2018-08-17T01:33:49.257Z,71.30
2018-08-17T01:36:18.653Z,71.20
2018-08-17T01:38:48.044Z,71.30
2018-08-17T01:41:17.964Z,71.50
2018-08-17T01:43:47.690Z,71.70
2018-08-17T01:46:17.187Z,71.60
2018-08-17T01:48:47.121Z,71.40
2018-08-17T01:51:16.549Z,71.50
2018-08-17T01:53:45.913Z,71.50
2018-08-17T01:56:15.781Z,71.20
2018-08-17T01:58:45.244Z,71.20
2018-08-17T02:01:14.674Z,71.30
2018-08-17T02:03:44.483Z,71.40
2018-08-17T02:06:14.353Z,71.10
2018-08-17T02:08:43.826Z,71.10
2018-08-17T02:11:13.881Z,71.10
2018-08-17T02:13:43.383Z,71.00
2018-08-17T02:16:12.788Z,71.00
2018-08-17T02:18:42.484Z,71.00
2018-08-17T02:21:12.050Z,71.00
2018-08-17T02:23:41.656Z,71.00
2018-08-17T02:26:11.312Z,70.90
2018-08-17T02:28:40.727Z,70.80
2018-08-17T02:31:10.213Z,70.80
2018-08-17T02:33:39.945Z,70.80
2018-08-17T02:36:09.871Z,70.70
2018-08-17T02:38:39.367Z,70.90
2018-08-17T02:41:09.278Z,70.90
2018-08-17T02:43:38.811Z,70.70
2018-08-17T02:46:08.220Z,70.60
2018-08-17T02:48:37.721Z,70.70
2018-08-17T02:51:07.214Z,70.60
2018-08-17T02:53:36.653Z,70.70
2018-08-17T02:56:06.193Z,70.70
2018-08-17T02:58:35.582Z,70.90
2018-08-17T03:01:05.001Z,70.90
2018-08-17T03:03:34.649Z,71.00
2018-08-17T03:06:04.168Z,71.00
2018-08-17T03:08:33.553Z,71.00
2018-08-17T03:11:03.386Z,71.00
2018-08-17T03:13:32.808Z,71.30
2018-08-17T03:16:02.334Z,71.10
2018-08-17T03:18:32.226Z,71.20
2018-08-17T03:21:01.696Z,71.40
2018-08-17T03:23:31.114Z,71.40
2018-08-17T03:26:00.935Z,71.40
2018-08-17T03:28:30.440Z,71.40
2018-08-17T03:30:59.925Z,71.60
2018-08-17T03:33:29.789Z,71.70
2018-08-17T03:35:59.325Z,72.50
2018-08-17T03:38:28.990Z,71.90
2018-08-17T03:40:58.925Z,71.90
2018-08-17T03:43:28.442Z,71.60
2018-08-17T03:45:57.832Z,71.60
2018-08-17T03:48:27.717Z,71.70
2018-08-17T03:50:57.234Z,71.80
2018-08-17T03:53:26.681Z,72.10
2018-08-17T03:55:56.456Z,72.20
2018-08-17T03:58:25.937Z,72.40
2018-08-17T04:00:55.574Z,72.30
2018-08-17T04:03:25.494Z,72.30
2018-08-17T04:05:55.361Z,72.40
2018-08-17T04:08:25.295Z,72.40
2018-08-17T04:10:56.265Z,72.70
2018-08-17T04:13:25.747Z,72.60
2018-08-17T04:15:55.301Z,72.70
2018-08-17T04:18:25.386Z,72.70
2018-08-17T04:20:55.157Z,72.80
2018-08-17T04:23:25.020Z,72.80
2018-08-17T04:25:55.185Z,73.00
2018-08-17T04:28:24.973Z,73.10
2018-08-17T04:30:54.620Z,73.30
2018-08-17T04:33:24.539Z,73.20
2018-08-17T04:35:54.402Z,73.00
2018-08-17T04:38:24.024Z,73.30
2018-08-17T04:40:54.626Z,73.50
2018-08-17T04:43:24.399Z,73.50
2018-08-17T04:45:54.153Z,73.50
2018-08-17T04:48:24.200Z,73.70
2018-08-17T04:50:53.837Z,73.70
2018-08-17T04:53:23.708Z,74.00
2018-08-17T04:55:54.014Z,73.70
2018-08-17T04:58:23.722Z,73.70
2018-08-17T05:00:53.480Z,74.00
2018-08-17T05:03:23.453Z,73.80
2018-08-17T05:05:53.214Z,73.60
2018-08-17T05:08:22.895Z,74.20
2018-08-17T05:10:52.915Z,74.40
2018-08-17T05:13:22.699Z,74.40
2018-08-17T05:15:52.459Z,74.50
2018-08-17T05:18:22.394Z,74.20
2018-08-17T05:20:51.941Z,74.10
2018-08-17T05:23:21.680Z,74.70
2018-08-17T05:25:51.835Z,74.70
2018-08-17T05:28:21.543Z,74.80
2018-08-17T05:30:51.124Z,74.90
2018-08-17T05:33:21.059Z,75.30
2018-08-17T05:35:50.515Z,75.10
2018-08-17T05:38:20.031Z,74.80
2018-08-17T05:40:49.820Z,75.00
2018-08-17T05:43:19.551Z,75.20
2018-08-17T05:45:48.978Z,75.30
2018-08-17T05:48:18.762Z,74.60
2018-08-17T05:50:48.207Z,75.40
2018-08-17T05:53:17.606Z,75.50
2018-08-17T05:55:47.307Z,75.80
2018-08-17T05:58:16.828Z,75.90
2018-08-17T06:00:46.412Z,75.60
2018-08-17T06:03:16.085Z,75.70
2018-08-17T06:05:45.620Z,75.10
2018-08-17T06:08:15.023Z,75.30
2018-08-17T06:10:44.720Z,75.30
2018-08-17T06:13:14.079Z,76.10
2018-08-17T06:15:43.652Z,76.00
2018-08-17T06:18:13.196Z,76.20
2018-08-17T06:20:42.644Z,76.10
2018-08-17T06:23:12.174Z,75.60
2018-08-17T06:25:41.836Z,75.60
2018-08-17T06:28:11.207Z,75.80
2018-08-17T06:30:40.819Z,75.80
2018-08-17T06:33:10.415Z,75.70
2018-08-17T06:35:40.004Z,75.20
2018-08-17T06:38:09.404Z,75.10
2018-08-17T06:40:38.981Z,75.40
2018-08-17T06:43:08.699Z,75.80
2018-08-17T06:45:38.607Z,75.90
2018-08-17T06:48:08.374Z,75.90
2018-08-17T06:50:38.265Z,76.00
2018-08-17T06:53:08.094Z,76.10
2018-08-17T06:55:37.795Z,76.00
2018-08-17T06:58:07.517Z,75.50
2018-08-17T07:00:36.972Z,75.90
2018-08-17T07:03:07.127Z,75.90
2018-08-17T07:05:36.637Z,75.40
2018-08-17T07:08:06.201Z,75.20
2018-08-17T07:10:36.057Z,75.10
2018-08-17T07:13:05.631Z,74.80
2018-08-17T07:15:35.080Z,74.70
2018-08-17T07:18:04.890Z,74.60
2018-08-17T07:20:34.328Z,74.40
2018-08-17T07:23:03.892Z,73.90
2018-08-17T07:25:33.662Z,73.90
2018-08-17T07:28:03.131Z,73.60
2018-08-17T07:30:32.624Z,73.80
2018-08-17T07:33:02.438Z,73.70
2018-08-17T07:35:31.893Z,73.90
2018-08-17T07:38:01.436Z,73.40
2018-08-17T07:40:31.109Z,73.10
2018-08-17T07:43:01.068Z,73.60
2018-08-17T07:45:30.474Z,73.90
2018-08-17T07:48:00.803Z,73.70
2018-08-17T07:50:30.205Z,73.30
2018-08-17T07:53:00.699Z,73.50
2018-08-17T07:55:30.424Z,73.40
2018-08-17T07:57:59.889Z,73.30
2018-08-17T08:00:29.434Z,73.30
2018-08-17T08:02:59.351Z,72.30
2018-08-17T08:05:28.727Z,71.90
2018-08-17T08:07:58.321Z,72.00
2018-08-17T08:10:28.230Z,72.20
2018-08-17T08:12:57.880Z,71.60
2018-08-17T08:15:27.535Z,71.30
2018-08-17T08:17:57.318Z,71.00
2018-08-17T08:20:35.610Z,71.00
2018-08-17T08:23:16.193Z,71.10
2018-08-17T08:29:37.329Z,70.60
2018-08-17T08:32:07.161Z,71.10
2018-08-17T08:34:36.575Z,69.60
2018-08-17T08:37:06.285Z,70.20
2018-08-17T08:39:35.802Z,70.00
2018-08-17T08:42:05.395Z,68.90
2018-08-17T08:44:35.774Z,68.60
2018-08-17T08:47:05.129Z,68.40
2018-08-17T08:49:34.644Z,68.40
2018-08-17T08:52:04.288Z,68.20
2018-08-17T08:54:33.687Z,68.20
2018-08-17T08:57:03.360Z,67.80
2018-08-17T08:59:33.221Z,68.20
2018-08-17T09:02:02.813Z,68.10
2018-08-17T09:04:32.168Z,68.70
2018-08-17T09:07:01.663Z,68.40
2018-08-17T09:09:31.079Z,68.70
2018-08-17T09:12:00.418Z,69.00
2018-08-17T09:14:31.053Z,68.20
2018-08-17T09:17:00.410Z,67.50
2018-08-17T09:19:29.884Z,67.00
2018-08-17T09:21:59.307Z,67.50
2018-08-17T09:24:28.776Z,68.10
2018-08-17T09:26:58.279Z,67.20
2018-08-17T09:29:27.849Z,67.30
2018-08-17T09:31:57.378Z,67.90
2018-08-17T09:34:26.701Z,68.80
2018-08-17T09:36:56.287Z,68.10
2018-08-17T09:39:26.011Z,68.40
2018-08-17T09:41:55.416Z,68.10
2018-08-17T09:44:25.427Z,68.40
2018-08-17T09:46:55.134Z,67.90
2018-08-17T09:49:24.689Z,66.60
2018-08-17T09:51:54.547Z,66.30
2018-08-17T09:54:24.470Z,66.80
2018-08-17T09:56:54.356Z,66.50
2018-08-17T09:59:24.545Z,66.00
2018-08-17T10:01:59.474Z,66.10
2018-08-17T10:04:33.866Z,66.30
2018-08-17T10:07:08.343Z,66.20
2018-08-17T10:09:42.882Z,65.30
2018-08-17T10:12:13.821Z,65.70
2018-08-17T10:14:43.262Z,67.10
2018-08-17T10:17:12.731Z,66.70
2018-08-17T10:19:42.371Z,66.80
2018-08-17T10:22:12.150Z,67.00
2018-08-17T10:24:41.428Z,66.40
2018-08-17T10:27:11.165Z,65.60
2018-08-17T10:29:40.822Z,65.80
2018-08-17T10:32:10.206Z,66.10
2018-08-17T10:34:39.958Z,66.30
2018-08-17T10:37:09.496Z,65.70
2018-08-17T10:39:38.872Z,66.10
2018-08-17T10:42:08.609Z,66.40
2018-08-17T10:44:37.977Z,67.20
2018-08-17T10:47:07.424Z,67.50
2018-08-17T10:49:37.148Z,67.00
2018-08-17T10:52:07.786Z,67.20
2018-08-17T10:54:37.101Z,66.70
2018-08-17T10:57:07.005Z,67.30
2018-08-17T10:59:36.525Z,66.20
2018-08-17T11:02:07.149Z,66.10
2018-08-17T11:04:36.634Z,67.30
2018-08-17T11:07:06.089Z,65.90
2018-08-17T11:09:36.029Z,65.40
2018-08-17T11:12:06.210Z,63.40
2018-08-17T11:14:36.086Z,64.10
2018-08-17T11:17:07.568Z,63.90
2018-08-17T11:19:37.110Z,63.70
2018-08-17T11:22:06.437Z,64.30
2018-08-17T11:24:36.972Z,64.50
2018-08-17T11:27:07.142Z,64.30
2018-08-17T11:29:38.895Z,65.60
2018-08-17T11:32:08.325Z,64.90
2018-08-17T11:34:37.714Z,63.40
2018-08-17T11:37:07.238Z,62.60
2018-08-17T11:39:37.946Z,64.70
2018-08-17T11:42:07.952Z,64.10
2018-08-17T11:44:37.733Z,64.20
2018-08-17T11:47:07.148Z,63.40
2018-08-17T11:49:38.574Z,63.40
2018-08-17T11:52:08.801Z,62.60
2018-08-17T11:54:38.346Z,61.50
2018-08-17T11:57:09.448Z,60.90
2018-08-17T11:59:51.997Z,61.70
2018-08-17T12:02:22.098Z,60.50
2018-08-17T12:04:52.610Z,61.30
2018-08-17T12:07:24.162Z,60.90
2018-08-17T12:09:58.435Z,61.50
2018-08-17T12:12:31.913Z,61.40
2018-08-17T12:15:01.605Z,61.30
2018-08-17T12:17:31.243Z,60.70
2018-08-17T12:20:01.117Z,60.70
2018-08-17T12:22:32.398Z,59.50
2018-08-17T12:25:02.931Z,58.30
2018-08-17T12:27:32.664Z,57.90
2018-08-17T12:30:02.703Z,59.00
2018-08-17T12:32:31.958Z,59.40
2018-08-17T12:35:01.391Z,58.60
2018-08-17T12:37:31.609Z,58.30
2018-08-17T12:40:01.053Z,59.10
2018-08-17T12:42:30.819Z,59.90
2018-08-17T12:45:05.663Z,59.10
2018-08-17T12:47:35.005Z,59.20
2018-08-17T12:50:05.594Z,59.70
2018-08-17T12:52:35.239Z,60.20
2018-08-17T12:55:05.013Z,59.80
2018-08-17T12:57:40.124Z,60.50
2018-08-17T13:00:10.024Z,60.10
2018-08-17T13:02:39.551Z,59.30
2018-08-17T13:05:09.058Z,58.90
2018-08-17T13:07:38.749Z,59.00
2018-08-17T13:10:08.343Z,59.20
2018-08-17T13:12:37.784Z,59.00
2018-08-17T13:15:07.595Z,59.00
2018-08-17T13:17:52.565Z,58.50
2018-08-17T13:20:22.590Z,58.10
2018-08-17T13:22:53.658Z,59.00
2018-08-17T13:25:23.328Z,59.30
2018-08-17T13:27:53.460Z,59.80
2018-08-17T13:30:23.053Z,59.90
2018-08-17T13:32:52.716Z,60.60
2018-08-17T13:35:22.948Z,60.50
2018-08-17T13:37:52.633Z,61.00
2018-08-17T13:40:22.270Z,61.10
2018-08-17T13:42:54.463Z,61.30
2018-08-17T13:45:24.442Z,61.60
2018-08-17T13:47:54.186Z,61.40
2018-08-17T13:50:24.072Z,61.60
2018-08-17T13:52:53.881Z,60.90
2018-08-17T13:55:23.552Z,60.30
2018-08-17T13:57:53.542Z,60.60
2018-08-17T14:00:22.999Z,61.10
2018-08-17T14:02:53.021Z,61.60
2018-08-17T14:05:22.929Z,61.90
2018-08-17T14:07:52.648Z,61.00
2018-08-17T14:10:22.324Z,60.80
2018-08-17T14:12:52.284Z,60.50
2018-08-17T14:15:21.936Z,61.30
2018-08-17T14:17:51.493Z,62.00
2018-08-17T14:20:21.614Z,61.70
2018-08-17T14:22:50.941Z,61.20
2018-08-17T14:25:24.605Z,61.30
2018-08-17T14:27:54.410Z,61.50
2018-08-17T14:30:26.299Z,61.00
2018-08-17T14:32:55.733Z,61.00
2018-08-17T14:35:25.319Z,61.80
2018-08-17T14:37:54.941Z,61.90
2018-08-17T14:40:24.526Z,61.90
2018-08-17T14:42:54.108Z,61.50
2018-08-17T14:45:23.935Z,61.90
2018-08-17T14:47:53.589Z,61.70
2018-08-17T14:50:23.455Z,62.00
2018-08-17T14:52:52.946Z,61.40
2018-08-17T14:55:22.705Z,60.20
2018-08-17T14:57:52.366Z,60.50
2018-08-17T15:00:22.342Z,60.80
2018-08-17T15:02:51.833Z,60.90
2018-08-17T15:05:21.741Z,60.80
2018-08-17T15:07:51.620Z,60.60
2018-08-17T15:10:22.749Z,60.00
2018-08-17T15:12:52.972Z,60.20
2018-08-17T15:15:22.884Z,60.40
2018-08-17T15:17:52.416Z,60.50
2018-08-17T15:20:23.143Z,61.30
2018-08-17T15:22:53.607Z,61.20
2018-08-17T15:25:23.247Z,61.60
2018-08-17T15:27:52.946Z,60.80
2018-08-17T15:30:22.680Z,60.20
2018-08-17T15:32:52.344Z,60.20
2018-08-17T15:35:23.032Z,59.70
2018-08-17T15:37:52.812Z,59.60
2018-08-17T15:40:22.672Z,59.20
2018-08-17T15:42:52.339Z,59.00
2018-08-17T15:45:22.469Z,58.30
2018-08-17T15:47:51.915Z,58.60
2018-08-17T15:50:22.384Z,58.30
2018-08-17T15:52:51.986Z,58.30
2018-08-17T15:55:21.702Z,59.30
2018-08-17T15:57:52.820Z,59.20
2018-08-17T16:00:22.603Z,59.40
2018-08-17T16:02:52.172Z,58.70
2018-08-17T16:05:22.432Z,59.20
2018-08-17T16:07:52.469Z,58.40
2018-08-17T16:10:22.235Z,59.00
2018-08-17T16:12:52.275Z,59.10
2018-08-17T16:15:21.978Z,59.80
2018-08-17T16:17:51.342Z,59.90
2018-08-17T16:20:21.075Z,59.40
2018-08-17T16:22:50.516Z,59.60
2018-08-17T16:25:20.042Z,58.90
2018-08-17T16:27:49.797Z,59.10
2018-08-17T16:30:19.286Z,58.80
2018-08-17T16:32:48.830Z,59.20
2018-08-17T16:35:18.348Z,59.60
2018-08-17T16:37:48.756Z,59.40
2018-08-17T16:40:18.187Z,59.60
2018-08-17T16:42:51.273Z,59.50
2018-08-17T16:45:21.411Z,59.70
2018-08-17T16:47:50.999Z,57.60
2018-08-17T16:50:20.743Z,57.80
2018-08-17T16:52:50.294Z,58.20
2018-08-17T16:55:19.809Z,58.70
2018-08-17T16:57:49.443Z,58.40
2018-08-17T17:00:18.934Z,58.40
2018-08-17T17:02:48.368Z,58.00
2018-08-17T17:05:17.974Z,56.10
2018-08-17T17:07:48.119Z,56.20
2018-08-17T17:10:17.652Z,56.70
2018-08-17T17:12:47.335Z,55.60
2018-08-17T17:15:20.667Z,55.20
2018-08-17T17:17:56.786Z,55.80
2018-08-17T17:20:32.010Z,55.70
2018-08-17T17:23:01.482Z,55.00
2018-08-17T17:25:31.069Z,54.90
2018-08-17T17:28:00.632Z,54.30
2018-08-17T17:30:42.256Z,54.20
2018-08-17T17:33:11.941Z,53.90
2018-08-17T17:35:43.212Z,54.30
2018-08-17T17:38:13.205Z,55.20
2018-08-17T17:40:43.050Z,55.10
2018-08-17T17:43:13.874Z,55.30
2018-08-17T17:45:43.488Z,56.30
2018-08-17T17:48:12.967Z,56.40
2018-08-17T17:50:42.768Z,57.30
2018-08-17T17:53:12.188Z,56.90
2018-08-17T17:55:46.815Z,56.70
2018-08-17T17:58:16.666Z,56.00
2018-08-17T18:00:58.404Z,56.60
2018-08-17T18:03:32.103Z,57.40
2018-08-17T18:06:02.487Z,57.30
2018-08-17T18:08:32.595Z,57.30
2018-08-17T18:11:02.208Z,57.40
2018-08-17T18:13:31.635Z,57.40
2018-08-17T18:16:01.749Z,56.90
2018-08-17T18:18:31.356Z,57.00
2018-08-17T18:21:00.984Z,57.30
2018-08-17T18:23:30.464Z,57.20
2018-08-17T18:25:59.922Z,57.40
2018-08-17T18:28:29.427Z,57.80
2018-08-17T18:30:59.268Z,57.90
2018-08-17T18:33:28.639Z,57.90
2018-08-17T18:35:58.013Z,57.90
2018-08-17T18:38:27.736Z,57.80
2018-08-17T18:40:57.123Z,57.80
2018-08-17T18:43:26.584Z,58.20
2018-08-17T18:45:56.225Z,58.00
2018-08-17T18:48:25.927Z,58.40
2018-08-17T18:50:55.429Z,58.30
2018-08-17T18:53:25.331Z,58.80
2018-08-17T18:55:55.091Z,58.80
2018-08-17T18:58:24.646Z,58.90
2018-08-17T19:07:35.307Z,59.30
2018-08-17T19:10:05.390Z,59.60
2018-08-17T19:12:35.196Z,59.30
2018-08-17T19:15:08.339Z,59.10
2018-08-17T19:17:38.093Z,59.40
2018-08-17T19:20:09.753Z,59.60
2018-08-17T19:22:40.961Z,59.60
2018-08-17T19:25:12.402Z,59.70
2018-08-17T19:27:44.929Z,59.80
2018-08-17T19:30:23.548Z,60.00
2018-08-17T19:32:54.683Z,60.10
2018-08-17T19:42:05.398Z,60.10
2018-08-17T19:44:34.996Z,60.20
2018-08-17T19:47:04.752Z,60.40
2018-08-17T19:49:34.320Z,60.80
2018-08-17T19:52:04.084Z,60.70
2018-08-17T19:54:33.559Z,60.40
2018-08-17T19:57:03.228Z,60.20
2018-08-17T19:59:33.066Z,60.10
2018-08-17T20:02:02.663Z,59.90
2018-08-17T20:04:33.455Z,60.20
2018-08-17T20:07:03.127Z,60.30
2018-08-17T20:09:32.609Z,60.00
2018-08-17T20:12:02.648Z,59.90
2018-08-17T20:14:32.788Z,59.80
2018-08-17T20:17:02.401Z,60.00
2018-08-17T20:19:37.381Z,60.00
2018-08-17T20:22:21.028Z,59.80
2018-08-17T20:24:50.454Z,59.70
2018-08-17T20:27:20.751Z,59.90
2018-08-17T20:29:50.467Z,59.60
2018-08-17T20:32:19.921Z,59.50
2018-08-17T20:34:50.090Z,59.70
2018-08-17T20:37:20.308Z,59.80
2018-08-17T20:39:50.747Z,59.80
2018-08-17T20:42:20.659Z,59.60
2018-08-17T20:44:50.266Z,59.50
2018-08-17T20:47:19.984Z,59.40
2018-08-17T20:49:49.545Z,59.10
2018-08-17T20:52:19.279Z,59.10
2018-08-17T20:54:48.685Z,59.20
2018-08-17T20:57:19.017Z,59.30
2018-08-17T20:59:49.727Z,59.10
2018-08-17T21:02:19.335Z,59.20
2018-08-17T21:04:48.808Z,59.90
2018-08-17T21:07:18.715Z,60.00
2018-08-17T21:09:48.193Z,60.10
2018-08-17T21:12:17.769Z,60.50
2018-08-17T21:14:47.551Z,60.60
2018-08-17T21:17:16.979Z,60.90
2018-08-17T21:19:46.409Z,60.80
2018-08-17T21:22:15.971Z,61.00
2018-08-17T21:24:45.403Z,61.10
2018-08-17T21:27:14.822Z,61.20
2018-08-17T21:29:44.377Z,62.00
2018-08-17T21:32:13.787Z,61.20
2018-08-17T21:34:43.217Z,61.20
2018-08-17T21:37:12.942Z,61.40
2018-08-17T21:39:43.195Z,61.60
2018-08-17T21:42:12.626Z,60.70
2018-08-17T21:44:42.349Z,60.00
2018-08-17T21:47:12.073Z,60.70
2018-08-17T21:49:41.417Z,61.00
2018-08-17T21:52:15.208Z,61.40
2018-08-17T21:54:45.104Z,61.70
2018-08-17T21:57:14.824Z,61.80
2018-08-17T21:59:50.318Z,61.90
2018-08-17T22:02:20.529Z,62.00
2018-08-17T22:04:49.994Z,62.00
2018-08-17T22:07:21.084Z,62.10
2018-08-17T22:09:51.487Z,62.20
2018-08-17T22:12:21.331Z,61.70
2018-08-17T22:14:51.008Z,61.80
2018-08-17T22:17:33.459Z,61.90
2018-08-17T22:20:03.179Z,62.10
2018-08-17T22:22:32.573Z,62.20
2018-08-17T22:25:05.243Z,62.20
2018-08-17T22:27:34.646Z,61.90
2018-08-17T22:30:04.302Z,62.60
2018-08-17T22:32:33.985Z,62.50
2018-08-17T22:35:03.366Z,62.90
2018-08-17T22:37:32.730Z,63.00
2018-08-17T22:40:02.778Z,63.20
2018-08-17T22:42:32.197Z,63.00
2018-08-17T22:45:02.255Z,63.30
2018-08-17T22:47:32.019Z,63.40
2018-08-17T22:50:01.854Z,63.50
2018-08-17T22:52:34.038Z,63.60
2018-08-17T22:55:05.223Z,63.70
2018-08-17T22:57:34.790Z,63.80
2018-08-17T23:00:19.385Z,63.80
2018-08-17T23:02:50.110Z,64.00
2018-08-17T23:05:20.886Z,64.00
2018-08-17T23:07:50.912Z,64.10
2018-08-17T23:10:21.539Z,63.40
2018-08-17T23:12:52.300Z,63.80
2018-08-17T23:15:22.255Z,64.00
2018-08-17T23:17:54.043Z,64.20
2018-08-17T23:20:28.624Z,64.50
2018-08-17T23:22:59.207Z,64.60
2018-08-17T23:25:29.062Z,64.70
2018-08-17T23:27:58.865Z,64.80
2018-08-17T23:30:28.616Z,64.70
2018-08-17T23:32:58.045Z,64.30
2018-08-17T23:35:27.525Z,63.70
2018-08-17T23:37:57.243Z,64.30
2018-08-17T23:40:26.961Z,64.60
2018-08-17T23:42:56.519Z,64.90
2018-08-17T23:45:26.499Z,64.90
2018-08-17T23:47:56.250Z,65.20
2018-08-17T23:50:26.128Z,65.20
2018-08-17T23:52:55.945Z,65.20
2018-08-17T23:55:25.797Z,65.20
2018-08-17T23:57:55.659Z,64.90
